Time;durP1;ratioP1;P1;durP2;ratioP2;P2;SDS_P1;SDS_P2;PMS_P1;PMS_P2;Temp;Humidity;BMP_temperature;BMP_pressure;BME280_temperature;BME280_humidity;BME280_pressure;Samples;Min_cycle;Max_cycle;Signal;HPM_P1;HPM_P2
2022/10/22 00:00:10;;;;;;;6.28;5.68;;;;;;;;;;2094335;28;20104;-71
2022/10/22 00:01:29;;;;;;;7.50;5.15;;;;;;;;;;2098523;28;20025;-71
2022/10/22 00:02:48;;;;;;;5.05;4.55;;;;;;;;;;2091026;28;20115;-72
2022/10/22 00:04:07;;;;;;;5.53;5.03;;;;;;;;;;2094808;28;20036;-70
2022/10/22 00:05:26;;;;;;;5.80;4.53;;;;;;;;;;2096498;28;20112;-72
2022/10/22 00:06:45;;;;;;;5.47;4.35;;;;;;;;;;2097286;28;20103;-72
2022/10/22 00:08:04;;;;;;;6.60;4.72;;;;;;;;;;2093848;28;20434;-71
2022/10/22 00:09:23;;;;;;;9.07;5.22;;;;;;;;;;2099253;28;20036;-71
2022/10/22 00:10:42;;;;;;;4.75;4.32;;;;;;;;;;2095226;28;20401;-71
2022/10/22 00:12:00;;;;;;;5.38;4.40;;;;;;;;;;2097323;28;20032;-75
2022/10/22 00:13:20;;;;;;;4.80;4.32;;;;;;;;;;2097672;28;20114;-71
2022/10/22 00:14:39;;;;;;;4.85;4.40;;;;;;;;;;2096423;28;20493;-71
2022/10/22 00:15:57;;;;;;;4.38;3.97;;;;;;;;;;2096140;28;20482;-74
2022/10/22 00:17:17;;;;;;;7.45;4.63;;;;;;;;;;2090643;28;20028;-71
2022/10/22 00:18:36;;;;;;;4.43;4.03;;;;;;;;;;2097035;28;20033;-71
2022/10/22 00:19:58;;;;;;;8.48;4.35;;;;;;;;;;2097336;28;20388;-71
2022/10/22 00:21:17;;;;;;;4.75;4.25;;;;;;;;;;2104517;28;20028;-71
2022/10/22 00:22:36;;;;;;;4.65;4.07;;;;;;;;;;2100744;28;20024;-70
2022/10/22 00:23:55;;;;;;;4.35;3.75;;;;;;;;;;2096797;28;20513;-71
2022/10/22 00:25:14;;;;;;;5.65;3.88;;;;;;;;;;2098588;28;20170;-71
2022/10/22 00:26:33;;;;;;;7.88;3.88;;;;;;;;;;2094725;28;20435;-71
2022/10/22 00:27:52;;;;;;;6.55;4.20;;;;;;;;;;2090885;28;20116;-72
2022/10/22 00:29:11;;;;;;;4.38;3.97;;;;;;;;;;2097285;28;20486;-71
2022/10/22 00:30:30;;;;;;;5.30;4.20;;;;;;;;;;2094464;28;20119;-71
2022/10/22 00:31:49;;;;;;;4.22;3.83;;;;;;;;;;2098904;28;20066;-71
2022/10/22 00:33:08;;;;;;;6.78;3.92;;;;;;;;;;2097724;28;20060;-71
2022/10/22 00:34:27;;;;;;;5.30;3.50;;;;;;;;;;2096007;28;20043;-73
2022/10/22 00:35:46;;;;;;;6.93;4.03;;;;;;;;;;2098755;28;20493;-72
2022/10/22 00:37:05;;;;;;;4.25;3.65;;;;;;;;;;2099126;28;20045;-71
2022/10/22 00:38:24;;;;;;;5.95;4.03;;;;;;;;;;2093177;28;20462;-71
2022/10/22 00:39:43;;;;;;;4.20;3.80;;;;;;;;;;2094176;28;20060;-71
2022/10/22 00:41:02;;;;;;;5.88;4.30;;;;;;;;;;2098686;28;20040;-71
2022/10/22 00:42:22;;;;;;;4.97;4.50;;;;;;;;;;2092615;28;20099;-72
2022/10/22 00:43:59;;;;;;;4.28;3.88;;;;;;;;;;2097108;28;20021;-71
2022/10/22 00:45:24;;;;;;;4.43;4.00;;;;;;;;;;2098508;28;20702;-72
2022/10/22 00:46:43;;;;;;;5.45;3.95;;;;;;;;;;2097794;28;20064;-73
2022/10/22 00:48:03;;;;;;;4.75;4.05;;;;;;;;;;2098649;28;20458;-73
2022/10/22 00:49:22;;;;;;;4.35;3.92;;;;;;;;;;2097635;28;20283;-71
2022/10/22 00:50:47;;;;;;;6.68;3.78;;;;;;;;;;2097857;28;20031;-72
2022/10/22 00:52:06;;;;;;;5.43;3.90;;;;;;;;;;2094766;28;20036;-73
2022/10/22 00:53:28;;;;;;;6.47;4.20;;;;;;;;;;2097684;28;20155;-74
2022/10/22 00:54:47;;;;;;;4.10;3.67;;;;;;;;;;2096382;28;20047;-72
2022/10/22 00:56:06;;;;;;;5.05;3.80;;;;;;;;;;2095474;28;20488;-72
2022/10/22 00:57:26;;;;;;;5.25;4.07;;;;;;;;;;2098011;28;20515;-72
2022/10/22 00:58:47;;;;;;;6.30;3.95;;;;;;;;;;2095373;28;20049;-72
2022/10/22 01:00:07;;;;;;;5.50;4.15;;;;;;;;;;2096434;28;20068;-73
2022/10/22 01:01:28;;;;;;;5.45;4.03;;;;;;;;;;2100548;28;20032;-71
2022/10/22 01:02:48;;;;;;;5.00;3.40;;;;;;;;;;2095733;28;20061;-72
2022/10/22 01:04:07;;;;;;;4.60;3.70;;;;;;;;;;2091163;28;20533;-72
2022/10/22 01:05:28;;;;;;;3.95;3.60;;;;;;;;;;2097588;28;20111;-72
2022/10/22 01:06:47;;;;;;;4.00;3.60;;;;;;;;;;2098805;28;20024;-71
2022/10/22 01:08:08;;;;;;;6.38;3.65;;;;;;;;;;2093584;28;20028;-72
2022/10/22 01:09:31;;;;;;;6.30;3.78;;;;;;;;;;2097500;28;20036;-71
2022/10/22 01:10:58;;;;;;;4.78;3.38;;;;;;;;;;2101148;28;20024;-73
2022/10/22 01:12:18;;;;;;;3.97;3.35;;;;;;;;;;2096258;28;20367;-72
2022/10/22 01:13:43;;;;;;;5.43;3.50;;;;;;;;;;2096709;28;20025;-72
2022/10/22 01:15:22;;;;;;;3.88;3.10;;;;;;;;;;2095184;28;20074;-71
2022/10/22 01:16:58;;;;;;;8.40;3.33;;;;;;;;;;2093186;28;20064;-71
2022/10/22 01:18:16;;;;;;;4.72;3.13;;;;;;;;;;2097796;28;20025;-71
2022/10/22 01:20:02;;;;;;;4.88;3.40;;;;;;;;;;2100820;28;20028;-72
2022/10/22 01:21:21;;;;;;;3.38;3.08;;;;;;;;;;2101011;28;20051;-72
2022/10/22 01:22:53;;;;;;;6.45;3.35;;;;;;;;;;2097835;28;20415;-74
2022/10/22 01:24:18;;;;;;;5.57;3.35;;;;;;;;;;2095643;28;20040;-72
2022/10/22 01:25:45;;;;;;;3.35;3.05;;;;;;;;;;2097220;28;20415;-71
2022/10/22 01:27:23;;;;;;;4.22;3.55;;;;;;;;;;2098221;28;20036;-72
2022/10/22 01:28:53;;;;;;;3.45;2.95;;;;;;;;;;2104315;28;20099;-71
2022/10/22 01:30:12;;;;;;;5.38;2.95;;;;;;;;;;2096178;28;20032;-72
2022/10/22 01:31:35;;;;;;;4.28;3.42;;;;;;;;;;2097770;28;20460;-72
2022/10/22 01:32:56;;;;;;;3.60;3.17;;;;;;;;;;2099868;28;20055;-72
2022/10/22 01:34:16;;;;;;;5.95;3.10;;;;;;;;;;2096603;28;20060;-72
2022/10/22 01:35:40;;;;;;;7.25;3.40;;;;;;;;;;2096676;28;20029;-71
2022/10/22 01:37:00;;;;;;;3.17;2.92;;;;;;;;;;2107611;28;20036;-71
2022/10/22 01:38:20;;;;;;;4.10;3.58;;;;;;;;;;2102262;28;20036;-71
2022/10/22 01:39:39;;;;;;;5.32;3.63;;;;;;;;;;2101466;28;20040;-71
2022/10/22 01:40:59;;;;;;;4.13;3.75;;;;;;;;;;2098412;28;20025;-73
2022/10/22 01:42:18;;;;;;;4.75;3.58;;;;;;;;;;2097888;28;21474;-71
2022/10/22 01:43:37;;;;;;;3.97;3.65;;;;;;;;;;2101295;28;20029;-72
2022/10/22 01:44:56;;;;;;;4.15;3.50;;;;;;;;;;2098894;28;20062;-72
2022/10/22 01:46:15;;;;;;;6.38;3.67;;;;;;;;;;2098104;28;20513;-71
2022/10/22 01:47:37;;;;;;;4.65;3.25;;;;;;;;;;2098917;28;20488;-72
2022/10/22 01:49:17;;;;;;;3.83;3.47;;;;;;;;;;2107692;28;20023;-71
2022/10/22 01:50:43;;;;;;;3.83;3.33;;;;;;;;;;2097134;28;20031;-71
2022/10/22 01:52:25;;;;;;;4.40;3.40;;;;;;;;;;2098068;28;20020;-73
2022/10/22 01:53:59;;;;;;;3.90;3.40;;;;;;;;;;2095976;28;20032;-72
2022/10/22 01:55:37;;;;;;;4.03;3.53;;;;;;;;;;2098718;28;20036;-71
2022/10/22 01:56:56;;;;;;;5.55;3.50;;;;;;;;;;2100392;28;20032;-72
2022/10/22 01:58:32;;;;;;;4.07;3.33;;;;;;;;;;2098441;28;20392;-72
2022/10/22 01:59:52;;;;;;;3.67;3.38;;;;;;;;;;2097538;28;20663;-72
2022/10/22 02:01:29;;;;;;;5.00;3.78;;;;;;;;;;2101324;28;20474;-71
2022/10/22 02:02:55;;;;;;;7.43;3.60;;;;;;;;;;2097312;28;20432;-72
2022/10/22 02:04:22;;;;;;;4.78;3.38;;;;;;;;;;2097413;28;20032;-71
2022/10/22 02:05:47;;;;;;;6.40;3.40;;;;;;;;;;2096459;28;20024;-72
2022/10/22 02:07:07;;;;;;;5.82;3.63;;;;;;;;;;2102075;28;20025;-71
2022/10/22 02:08:28;;;;;;;5.05;3.20;;;;;;;;;;2099229;28;20021;-72
2022/10/22 02:09:48;;;;;;;3.92;3.55;;;;;;;;;;2100245;28;20432;-71
2022/10/22 02:11:07;;;;;;;3.85;3.40;;;;;;;;;;2098238;28;20056;-71
2022/10/22 02:12:27;;;;;;;4.40;3.42;;;;;;;;;;2096774;28;20020;-70
2022/10/22 02:13:52;;;;;;;3.60;3.30;;;;;;;;;;2102136;28;20107;-70
2022/10/22 02:15:11;;;;;;;4.03;3.33;;;;;;;;;;2096479;28;20037;-73
2022/10/22 02:16:33;;;;;;;5.13;3.35;;;;;;;;;;2098579;28;20028;-71
2022/10/22 02:17:54;;;;;;;3.63;3.33;;;;;;;;;;2098887;28;20711;-71
2022/10/22 02:19:24;;;;;;;3.58;3.28;;;;;;;;;;2102364;28;20027;-71
2022/10/22 02:20:42;;;;;;;5.60;3.63;;;;;;;;;;2105445;28;20516;-71
2022/10/22 02:22:02;;;;;;;4.55;3.40;;;;;;;;;;2101061;28;20110;-72
2022/10/22 02:23:21;;;;;;;5.90;3.65;;;;;;;;;;2100711;28;20119;-71
2022/10/22 02:24:40;;;;;;;8.88;3.83;;;;;;;;;;2098818;28;20024;-73
2022/10/22 02:26:02;;;;;;;6.78;3.95;;;;;;;;;;2097376;28;20028;-72
2022/10/22 02:27:34;;;;;;;3.72;3.38;;;;;;;;;;2097689;28;20025;-71
2022/10/22 02:28:57;;;;;;;4.45;3.65;;;;;;;;;;2095845;28;20435;-71
2022/10/22 02:30:17;;;;;;;4.45;4.05;;;;;;;;;;2095443;28;20029;-71
2022/10/22 02:31:38;;;;;;;4.68;3.72;;;;;;;;;;2101074;28;20028;-71
2022/10/22 02:33:10;;;;;;;5.65;4.05;;;;;;;;;;2099293;28;20065;-71
2022/10/22 02:34:30;;;;;;;4.15;3.75;;;;;;;;;;2104401;28;20041;-71
2022/10/22 02:35:50;;;;;;;3.63;3.30;;;;;;;;;;2099716;28;20036;-72
2022/10/22 02:37:09;;;;;;;3.90;3.60;;;;;;;;;;2100721;28;20060;-71
2022/10/22 02:38:29;;;;;;;3.83;3.53;;;;;;;;;;2098924;28;20040;-71
2022/10/22 02:39:48;;;;;;;5.80;3.63;;;;;;;;;;2098547;28;20075;-71
2022/10/22 02:41:07;;;;;;;3.72;3.25;;;;;;;;;;2101139;28;20032;-73
2022/10/22 02:42:27;;;;;;;4.45;3.67;;;;;;;;;;2099035;28;20028;-71
2022/10/22 02:43:50;;;;;;;5.05;3.88;;;;;;;;;;2097949;28;20576;-72
2022/10/22 02:45:09;;;;;;;4.28;3.63;;;;;;;;;;2106998;28;20111;-71
2022/10/22 02:46:29;;;;;;;4.45;3.50;;;;;;;;;;2097377;28;20020;-71
2022/10/22 02:47:48;;;;;;;3.70;3.00;;;;;;;;;;2096981;28;20028;-71
2022/10/22 02:49:06;;;;;;;4.75;3.63;;;;;;;;;;2100031;28;20393;-72
2022/10/22 02:50:25;;;;;;;3.83;3.40;;;;;;;;;;2099934;28;20401;-70
2022/10/22 02:51:44;;;;;;;3.75;3.17;;;;;;;;;;2100082;28;20052;-72
2022/10/22 02:53:03;;;;;;;3.55;3.10;;;;;;;;;;2100001;28;20035;-70
2022/10/22 02:54:25;;;;;;;7.50;3.38;;;;;;;;;;2100754;28;20036;-74
2022/10/22 02:55:44;;;;;;;3.75;3.30;;;;;;;;;;2099390;28;20040;-73
2022/10/22 02:57:03;;;;;;;3.25;2.95;;;;;;;;;;2096672;28;20032;-71
2022/10/22 02:58:21;;;;;;;5.55;3.50;;;;;;;;;;2097694;28;20480;-71
2022/10/22 02:59:40;;;;;;;6.20;3.40;;;;;;;;;;2100400;28;20032;-72
2022/10/22 03:00:59;;;;;;;3.25;2.83;;;;;;;;;;2100591;28;20103;-71
2022/10/22 03:02:18;;;;;;;2.97;2.70;;;;;;;;;;2101776;28;20036;-71
2022/10/22 03:03:37;;;;;;;3.28;2.97;;;;;;;;;;2099808;28;20389;-73
2022/10/22 03:04:56;;;;;;;4.53;3.40;;;;;;;;;;2097728;28;20111;-71
2022/10/22 03:06:15;;;;;;;7.32;3.22;;;;;;;;;;2099206;28;20025;-75
2022/10/22 03:07:34;;;;;;;4.53;3.22;;;;;;;;;;2101451;28;20103;-71
2022/10/22 03:08:53;;;;;;;3.17;2.97;;;;;;;;;;2099886;28;20461;-72
2022/10/22 03:10:12;;;;;;;3.58;3.25;;;;;;;;;;2100495;28;20020;-72
2022/10/22 03:11:31;;;;;;;3.50;3.20;;;;;;;;;;2098450;28;20123;-71
2022/10/22 03:12:50;;;;;;;6.30;2.95;;;;;;;;;;2100356;28;20028;-71
2022/10/22 03:14:09;;;;;;;3.50;3.20;;;;;;;;;;2100680;28;20041;-71
2022/10/22 03:15:28;;;;;;;6.32;3.25;;;;;;;;;;2097541;28;20036;-71
2022/10/22 03:16:47;;;;;;;3.42;3.13;;;;;;;;;;2100235;28;20032;-72
2022/10/22 03:18:05;;;;;;;4.93;3.20;;;;;;;;;;2098730;28;20470;-71
2022/10/22 03:19:25;;;;;;;3.40;3.10;;;;;;;;;;2101227;28;20032;-71
2022/10/22 03:20:43;;;;;;;5.13;3.30;;;;;;;;;;2098802;28;20024;-71
2022/10/22 03:22:06;;;;;;;3.80;3.38;;;;;;;;;;2099086;28;20035;-72
2022/10/22 03:23:25;;;;;;;5.18;3.25;;;;;;;;;;2102110;28;20025;-71
2022/10/22 03:24:46;;;;;;;4.65;2.92;;;;;;;;;;2101089;28;20381;-71
2022/10/22 03:26:06;;;;;;;5.30;3.25;;;;;;;;;;2099743;28;20100;-72
2022/10/22 03:27:27;;;;;;;4.22;3.72;;;;;;;;;;2100381;28;20028;-72
2022/10/22 03:28:47;;;;;;;7.90;3.67;;;;;;;;;;2099232;28;20032;-72
2022/10/22 03:30:06;;;;;;;3.45;2.85;;;;;;;;;;2097858;28;20515;-73
2022/10/22 03:31:25;;;;;;;3.47;3.08;;;;;;;;;;2096438;28;20489;-71
2022/10/22 03:32:44;;;;;;;3.38;3.08;;;;;;;;;;2100725;28;20040;-73
2022/10/22 03:34:03;;;;;;;3.28;2.95;;;;;;;;;;2100041;28;20032;-72
2022/10/22 03:35:22;;;;;;;4.95;3.10;;;;;;;;;;2098925;28;20024;-73
2022/10/22 03:36:41;;;;;;;5.75;3.20;;;;;;;;;;2098472;28;20028;-71
2022/10/22 03:38:00;;;;;;;3.22;2.95;;;;;;;;;;2099008;28;20111;-72
2022/10/22 03:39:20;;;;;;;5.63;3.30;;;;;;;;;;2099635;28;20107;-72
2022/10/22 03:40:40;;;;;;;3.60;3.30;;;;;;;;;;2100198;28;20032;-72
2022/10/22 03:41:59;;;;;;;8.32;3.40;;;;;;;;;;2100751;28;20044;-71
2022/10/22 03:43:18;;;;;;;4.38;2.90;;;;;;;;;;2100163;28;20020;-73
2022/10/22 03:44:39;;;;;;;4.65;3.88;;;;;;;;;;2098692;28;20028;-71
2022/10/22 03:45:57;;;;;;;4.10;3.47;;;;;;;;;;2107543;28;20032;-74
2022/10/22 03:47:17;;;;;;;4.22;3.17;;;;;;;;;;2100051;28;20032;-71
2022/10/22 03:48:36;;;;;;;4.50;3.15;;;;;;;;;;2098856;28;20095;-74
2022/10/22 03:49:54;;;;;;;3.40;3.10;;;;;;;;;;2098536;28;20412;-71
2022/10/22 03:51:13;;;;;;;4.28;3.13;;;;;;;;;;2098512;28;20025;-73
2022/10/22 03:52:36;;;;;;;4.38;3.10;;;;;;;;;;2100988;28;20544;-71
2022/10/22 03:53:55;;;;;;;4.13;3.08;;;;;;;;;;2101534;28;20028;-71
2022/10/22 03:55:14;;;;;;;4.22;2.88;;;;;;;;;;2100313;28;20025;-72
2022/10/22 03:56:33;;;;;;;3.53;3.22;;;;;;;;;;2098088;28;20493;-72
2022/10/22 03:57:52;;;;;;;3.60;3.30;;;;;;;;;;2097874;28;20503;-71
2022/10/22 03:59:12;;;;;;;3.28;2.97;;;;;;;;;;2100531;28;20028;-71
2022/10/22 04:00:31;;;;;;;3.67;3.10;;;;;;;;;;2099342;28;20018;-72
2022/10/22 04:01:50;;;;;;;7.50;3.13;;;;;;;;;;2094190;28;20473;-71
2022/10/22 04:03:09;;;;;;;7.07;3.75;;;;;;;;;;2095440;28;20032;-71
2022/10/22 04:04:28;;;;;;;3.75;3.17;;;;;;;;;;2098777;28;20036;-72
2022/10/22 04:05:47;;;;;;;3.22;3.00;;;;;;;;;;2101210;28;20378;-71
2022/10/22 04:07:06;;;;;;;3.65;3.33;;;;;;;;;;2100104;28;20027;-72
2022/10/22 04:08:25;;;;;;;5.97;2.80;;;;;;;;;;2098390;28;20397;-71
2022/10/22 04:09:44;;;;;;;3.60;3.03;;;;;;;;;;2097236;28;20056;-75
2022/10/22 04:11:03;;;;;;;5.28;3.45;;;;;;;;;;2099817;28;20037;-71
2022/10/22 04:12:22;;;;;;;3.05;2.83;;;;;;;;;;2099016;28;20450;-71
2022/10/22 04:13:42;;;;;;;6.10;3.72;;;;;;;;;;2098869;28;20024;-72
2022/10/22 04:15:01;;;;;;;4.15;2.78;;;;;;;;;;2097795;28;20040;-71
2022/10/22 04:16:21;;;;;;;3.20;3.00;;;;;;;;;;2096577;28;20113;-72
2022/10/22 04:17:40;;;;;;;3.60;3.30;;;;;;;;;;2101028;28;20412;-72
2022/10/22 04:18:59;;;;;;;3.65;3.28;;;;;;;;;;2097401;28;20406;-72
2022/10/22 04:20:18;;;;;;;5.10;3.03;;;;;;;;;;2099193;28;20024;-72
2022/10/22 04:21:36;;;;;;;6.47;3.20;;;;;;;;;;2098276;28;20024;-72
2022/10/22 04:22:55;;;;;;;4.50;2.95;;;;;;;;;;2099477;28;20024;-72
2022/10/22 04:24:14;;;;;;;2.95;2.75;;;;;;;;;;2098378;28;20031;-72
2022/10/22 04:25:33;;;;;;;3.92;3.60;;;;;;;;;;2094887;28;20028;-71
2022/10/22 04:26:53;;;;;;;4.22;3.17;;;;;;;;;;2097202;28;20119;-72
2022/10/22 04:28:11;;;;;;;3.90;2.70;;;;;;;;;;2098744;28;20024;-71
2022/10/22 04:29:30;;;;;;;4.30;3.08;;;;;;;;;;2100717;28;20115;-73
2022/10/22 04:30:49;;;;;;;5.45;3.35;;;;;;;;;;2098127;28;20028;-71
2022/10/22 04:32:08;;;;;;;2.63;2.42;;;;;;;;;;2097266;28;20441;-72
2022/10/22 04:33:27;;;;;;;3.15;2.83;;;;;;;;;;2098971;28;20031;-72
2022/10/22 04:34:46;;;;;;;3.42;2.92;;;;;;;;;;2098577;28;20513;-71
2022/10/22 04:36:07;;;;;;;9.40;3.05;;;;;;;;;;2101033;28;20433;-73
2022/10/22 04:37:26;;;;;;;4.63;3.17;;;;;;;;;;2093973;28;20028;-73
2022/10/22 04:38:46;;;;;;;5.35;3.13;;;;;;;;;;2097140;28;20024;-73
2022/10/22 04:40:05;;;;;;;4.30;2.92;;;;;;;;;;2097909;28;20286;-71
2022/10/22 04:41:26;;;;;;;3.05;2.78;;;;;;;;;;2099407;28;20438;-72
2022/10/22 04:42:45;;;;;;;3.33;3.03;;;;;;;;;;2099634;28;20492;-71
2022/10/22 04:44:05;;;;;;;4.32;2.63;;;;;;;;;;2098264;28;20108;-71
2022/10/22 04:45:24;;;;;;;4.72;2.85;;;;;;;;;;2095678;28;20029;-72
2022/10/22 04:46:42;;;;;;;3.25;2.80;;;;;;;;;;2097180;28;20028;-73
2022/10/22 04:48:01;;;;;;;3.45;2.63;;;;;;;;;;2095374;28;20054;-73
2022/10/22 04:49:20;;;;;;;3.30;2.65;;;;;;;;;;2097207;28;20028;-73
2022/10/22 04:50:39;;;;;;;5.95;2.83;;;;;;;;;;2093303;28;20451;-73
2022/10/22 04:51:58;;;;;;;2.75;2.55;;;;;;;;;;2097638;28;20029;-73
2022/10/22 04:53:17;;;;;;;3.03;2.83;;;;;;;;;;2099210;28;20592;-73
2022/10/22 04:54:36;;;;;;;2.97;2.67;;;;;;;;;;2100559;28;20508;-73
2022/10/22 04:56:05;;;;;;;4.53;3.00;;;;;;;;;;2098332;28;20496;-73
2022/10/22 04:57:27;;;;;;;3.00;2.35;;;;;;;;;;2096680;28;20040;-73
2022/10/22 04:58:48;;;;;;;3.70;2.95;;;;;;;;;;2098881;28;20042;-75
2022/10/22 05:00:07;;;;;;;2.95;2.65;;;;;;;;;;2098941;28;20028;-76
2022/10/22 05:01:28;;;;;;;5.43;3.00;;;;;;;;;;2100099;28;20036;-73
2022/10/22 05:02:50;;;;;;;4.55;2.53;;;;;;;;;;2098798;28;20024;-73
2022/10/22 05:04:14;;;;;;;2.90;2.70;;;;;;;;;;2104871;28;20020;-75
2022/10/22 05:05:32;;;;;;;5.28;2.83;;;;;;;;;;2098681;28;20472;-73
2022/10/22 05:06:51;;;;;;;3.45;2.40;;;;;;;;;;2097728;28;20032;-73
2022/10/22 05:08:10;;;;;;;3.38;2.80;;;;;;;;;;2096842;28;20036;-73
2022/10/22 05:09:29;;;;;;;6.28;2.65;;;;;;;;;;2099868;28;20024;-73
2022/10/22 05:10:48;;;;;;;5.78;2.75;;;;;;;;;;2096926;28;21520;-73
2022/10/22 05:12:07;;;;;;;2.53;2.33;;;;;;;;;;2097688;28;20032;-73
2022/10/22 05:13:26;;;;;;;2.67;2.40;;;;;;;;;;2097977;28;20037;-72
2022/10/22 05:14:45;;;;;;;4.05;2.50;;;;;;;;;;2098168;28;20028;-73
2022/10/22 05:16:04;;;;;;;3.53;2.70;;;;;;;;;;2098286;28;20031;-75
2022/10/22 05:17:22;;;;;;;2.78;2.33;;;;;;;;;;2096269;28;20032;-74
2022/10/22 05:18:42;;;;;;;3.95;2.53;;;;;;;;;;2096048;28;20028;-74
2022/10/22 05:20:02;;;;;;;3.50;2.88;;;;;;;;;;2094566;28;20505;-75
2022/10/22 05:21:21;;;;;;;5.13;2.60;;;;;;;;;;2097168;28;20044;-75
2022/10/22 05:22:40;;;;;;;3.20;2.72;;;;;;;;;;2100220;28;20032;-75
2022/10/22 05:23:59;;;;;;;3.80;2.38;;;;;;;;;;2097815;28;20397;-74
2022/10/22 05:25:18;;;;;;;3.80;2.63;;;;;;;;;;2096622;28;20056;-75
2022/10/22 05:26:37;;;;;;;3.10;2.80;;;;;;;;;;2109614;28;20024;-73
2022/10/22 05:27:55;;;;;;;5.07;2.83;;;;;;;;;;2099571;28;20025;-74
2022/10/22 05:29:14;;;;;;;3.00;2.80;;;;;;;;;;2098199;28;20032;-74
2022/10/22 05:30:33;;;;;;;3.63;2.55;;;;;;;;;;2098440;28;20031;-74
2022/10/22 05:31:53;;;;;;;3.13;2.83;;;;;;;;;;2099037;28;20029;-76
2022/10/22 05:33:12;;;;;;;2.85;2.65;;;;;;;;;;2099358;28;20072;-73
2022/10/22 05:34:32;;;;;;;2.72;2.53;;;;;;;;;;2099662;28;20033;-73
2022/10/22 05:35:51;;;;;;;3.33;2.70;;;;;;;;;;2099188;28;20055;-74
2022/10/22 05:37:10;;;;;;;2.83;2.63;;;;;;;;;;2098982;28;20039;-73
2022/10/22 05:38:30;;;;;;;2.78;2.55;;;;;;;;;;2098833;28;20032;-74
2022/10/22 05:39:49;;;;;;;3.67;2.95;;;;;;;;;;2098499;28;20033;-74
2022/10/22 05:41:09;;;;;;;3.20;2.60;;;;;;;;;;2097294;28;20037;-76
2022/10/22 05:42:31;;;;;;;5.28;3.17;;;;;;;;;;2099361;28;20483;-73
2022/10/22 05:43:53;;;;;;;2.95;2.67;;;;;;;;;;2097713;28;20029;-74
2022/10/22 05:45:12;;;;;;;3.72;2.40;;;;;;;;;;2097033;28;20017;-74
2022/10/22 05:46:33;;;;;;;5.00;2.90;;;;;;;;;;2097713;28;20420;-73
2022/10/22 05:47:52;;;;;;;5.00;2.80;;;;;;;;;;2107321;28;20023;-74
2022/10/22 05:49:13;;;;;;;3.97;2.50;;;;;;;;;;2099485;28;20760;-75
2022/10/22 05:50:34;;;;;;;3.97;2.50;;;;;;;;;;2094161;28;20467;-74
2022/10/22 05:51:53;;;;;;;5.25;2.40;;;;;;;;;;2098707;28;20036;-74
2022/10/22 05:53:12;;;;;;;3.75;2.70;;;;;;;;;;2098505;28;20480;-74
2022/10/22 05:54:31;;;;;;;3.50;2.40;;;;;;;;;;2094252;28;20025;-75
2022/10/22 05:55:50;;;;;;;3.50;2.50;;;;;;;;;;2099779;28;20068;-73
2022/10/22 05:57:09;;;;;;;3.05;2.55;;;;;;;;;;2098685;28;20041;-74
2022/10/22 05:58:28;;;;;;;3.50;2.38;;;;;;;;;;2096934;28;20444;-74
2022/10/22 05:59:48;;;;;;;4.95;2.38;;;;;;;;;;2098262;28;20056;-77
2022/10/22 06:01:10;;;;;;;4.47;2.50;;;;;;;;;;2099841;28;20036;-73
2022/10/22 06:02:29;;;;;;;4.03;2.45;;;;;;;;;;2107843;28;20452;-74
2022/10/22 06:03:48;;;;;;;5.05;2.80;;;;;;;;;;2095849;28;20025;-73
2022/10/22 06:05:07;;;;;;;2.70;2.47;;;;;;;;;;2097020;28;20029;-75
2022/10/22 06:06:30;;;;;;;3.85;2.22;;;;;;;;;;2100339;28;20024;-75
2022/10/22 06:07:49;;;;;;;3.20;2.40;;;;;;;;;;2101700;28;20381;-74
2022/10/22 06:09:11;;;;;;;3.08;2.42;;;;;;;;;;2097898;28;20521;-75
2022/10/22 06:10:30;;;;;;;5.53;3.20;;;;;;;;;;2100147;28;20029;-75
2022/10/22 06:11:49;;;;;;;2.67;2.40;;;;;;;;;;2098077;28;20024;-75
2022/10/22 06:13:08;;;;;;;4.80;3.03;;;;;;;;;;2100817;28;20024;-76
2022/10/22 06:14:27;;;;;;;4.03;2.53;;;;;;;;;;2099760;28;20600;-76
2022/10/22 06:15:46;;;;;;;3.65;2.60;;;;;;;;;;2094688;28;20093;-75
2022/10/22 06:17:05;;;;;;;3.53;2.75;;;;;;;;;;2098368;28;20440;-75
2022/10/22 06:18:23;;;;;;;3.00;2.53;;;;;;;;;;2100696;28;20028;-75
2022/10/22 06:19:42;;;;;;;2.60;2.40;;;;;;;;;;2099795;28;20036;-76
2022/10/22 06:21:05;;;;;;;3.38;2.67;;;;;;;;;;2099869;28;20107;-75
2022/10/22 06:22:24;;;;;;;;;;;;;;;;;;2102138;28;20532;-75
2022/10/22 06:23:43;;;;;;;3.83;3.17;;;;;;;;;;2098236;28;20361;-76
2022/10/22 06:25:02;;;;;;;2.88;2.67;;;;;;;;;;2098964;28;20028;-75
2022/10/22 06:26:22;;;;;;;3.85;2.65;;;;;;;;;;2100977;28;20020;-76
2022/10/22 06:27:41;;;;;;;4.05;2.38;;;;;;;;;;2100508;28;20024;-75
2022/10/22 06:29:00;;;;;;;2.30;2.10;;;;;;;;;;2099279;28;20025;-77
2022/10/22 06:30:19;;;;;;;4.68;2.65;;;;;;;;;;2101232;28;20024;-75
2022/10/22 06:31:38;;;;;;;3.72;2.53;;;;;;;;;;2100354;28;20509;-75
2022/10/22 06:32:57;;;;;;;2.72;2.53;;;;;;;;;;2100293;28;20025;-75
2022/10/22 06:34:17;;;;;;;6.28;3.08;;;;;;;;;;2098420;28;20123;-75
2022/10/22 06:35:36;;;;;;;3.17;2.88;;;;;;;;;;2098175;28;20099;-76
2022/10/22 06:36:55;;;;;;;2.95;2.63;;;;;;;;;;2099648;28;20028;-76
2022/10/22 06:38:14;;;;;;;2.80;2.60;;;;;;;;;;2099677;28;20028;-75
2022/10/22 06:39:33;;;;;;;4.63;2.60;;;;;;;;;;2098938;28;20036;-76
2022/10/22 06:40:52;;;;;;;5.20;2.55;;;;;;;;;;2101744;28;20400;-75
2022/10/22 06:42:11;;;;;;;3.88;2.47;;;;;;;;;;2101561;28;20412;-75
2022/10/22 06:43:30;;;;;;;3.00;2.80;;;;;;;;;;2106201;28;20020;-75
2022/10/22 06:44:49;;;;;;;2.70;2.45;;;;;;;;;;2099066;28;20032;-74
2022/10/22 06:46:09;;;;;;;2.92;2.47;;;;;;;;;;2098767;28;20071;-75
2022/10/22 06:47:30;;;;;;;3.95;2.60;;;;;;;;;;2100989;28;20071;-75
2022/10/22 06:48:50;;;;;;;3.13;2.70;;;;;;;;;;2100992;28;20044;-74
2022/10/22 06:50:09;;;;;;;6.35;2.67;;;;;;;;;;2096842;28;20024;-75
2022/10/22 06:51:28;;;;;;;2.85;2.60;;;;;;;;;;2099706;28;20500;-75
2022/10/22 06:52:47;;;;;;;3.88;2.60;;;;;;;;;;2098162;28;20032;-75
2022/10/22 06:54:06;;;;;;;2.85;2.65;;;;;;;;;;2099333;28;20410;-76
2022/10/22 06:55:25;;;;;;;3.78;2.80;;;;;;;;;;2096499;28;20028;-73
2022/10/22 06:56:44;;;;;;;2.47;2.33;;;;;;;;;;2100555;28;20028;-75
2022/10/22 06:58:03;;;;;;;8.77;2.88;;;;;;;;;;2098538;28;20036;-75
2022/10/22 06:59:22;;;;;;;4.45;2.67;;;;;;;;;;2097988;28;20063;-75
2022/10/22 07:00:41;;;;;;;3.08;2.88;;;;;;;;;;2099253;28;20509;-75
2022/10/22 07:02:00;;;;;;;4.57;2.67;;;;;;;;;;2100824;28;20033;-79
2022/10/22 07:03:19;;;;;;;3.88;3.15;;;;;;;;;;2100317;28;20032;-76
2022/10/22 07:04:38;;;;;;;5.55;2.75;;;;;;;;;;2099162;28;20032;-74
2022/10/22 07:06:01;;;;;;;4.55;2.92;;;;;;;;;;2098830;28;20032;-75
2022/10/22 07:07:20;;;;;;;5.15;2.78;;;;;;;;;;2099720;28;20270;-76
2022/10/22 07:08:39;;;;;;;3.85;3.13;;;;;;;;;;2094044;28;20028;-73
2022/10/22 07:09:58;;;;;;;5.15;3.17;;;;;;;;;;2100287;28;20051;-73
2022/10/22 07:11:18;;;;;;;3.60;3.30;;;;;;;;;;2102768;28;20036;-74
2022/10/22 07:12:37;;;;;;;2.97;2.78;;;;;;;;;;2102158;28;20032;-73
2022/10/22 07:13:57;;;;;;;3.15;2.45;;;;;;;;;;2100003;28;20032;-73
2022/10/22 07:15:16;;;;;;;4.40;3.00;;;;;;;;;;2094494;28;20436;-74
2022/10/22 07:16:35;;;;;;;3.25;2.63;;;;;;;;;;2097208;28;20400;-73
2022/10/22 07:17:54;;;;;;;3.50;2.90;;;;;;;;;;2099504;28;20107;-73
2022/10/22 07:19:13;;;;;;;3.72;3.10;;;;;;;;;;2101178;28;20055;-73
2022/10/22 07:20:32;;;;;;;3.85;3.47;;;;;;;;;;2098972;28;20488;-73
2022/10/22 07:21:51;;;;;;;3.65;3.03;;;;;;;;;;2097833;28;20032;-74
2022/10/22 07:23:14;;;;;;;3.70;3.33;;;;;;;;;;2094601;28;20028;-74
2022/10/22 07:24:33;;;;;;;3.35;2.97;;;;;;;;;;2097278;28;20029;-74
2022/10/22 07:25:52;;;;;;;3.85;3.03;;;;;;;;;;2097764;28;20653;-74
2022/10/22 07:27:10;;;;;;;4.15;3.13;;;;;;;;;;2099852;28;20028;-74
2022/10/22 07:28:29;;;;;;;2.83;2.63;;;;;;;;;;2100470;28;20020;-75
2022/10/22 07:29:48;;;;;;;3.25;2.97;;;;;;;;;;2096998;28;20032;-75
2022/10/22 07:31:08;;;;;;;3.47;3.20;;;;;;;;;;2096390;28;20036;-74
2022/10/22 07:32:27;;;;;;;3.17;2.95;;;;;;;;;;2096588;28;20024;-77
2022/10/22 07:33:47;;;;;;;4.85;2.97;;;;;;;;;;2097543;28;20284;-75
2022/10/22 07:35:06;;;;;;;3.55;2.80;;;;;;;;;;2097230;28;20117;-73
2022/10/22 07:36:24;;;;;;;6.68;2.70;;;;;;;;;;2098986;28;20037;-73
2022/10/22 07:37:43;;;;;;;3.83;3.40;;;;;;;;;;2097173;28;20028;-74
2022/10/22 07:39:03;;;;;;;3.35;3.00;;;;;;;;;;2093143;28;20501;-74
2022/10/22 07:40:21;;;;;;;3.60;3.20;;;;;;;;;;2094161;28;20032;-74
2022/10/22 07:41:40;;;;;;;3.47;3.17;;;;;;;;;;2097110;28;20048;-73
2022/10/22 07:42:59;;;;;;;5.07;3.58;;;;;;;;;;2096388;28;20477;-74
2022/10/22 07:44:18;;;;;;;5.53;3.55;;;;;;;;;;2096726;28;20067;-73
2022/10/22 07:45:37;;;;;;;5.32;3.50;;;;;;;;;;2093849;28;20130;-73
2022/10/22 07:46:56;;;;;;;3.83;3.33;;;;;;;;;;2099238;28;20382;-75
2022/10/22 07:48:15;;;;;;;3.90;3.60;;;;;;;;;;2095818;28;20037;-76
2022/10/22 07:49:34;;;;;;;4.43;4.00;;;;;;;;;;2098656;28;20504;-72
2022/10/22 07:50:53;;;;;;;3.72;3.33;;;;;;;;;;2094380;28;20064;-76
2022/10/22 07:52:12;;;;;;;4.32;3.50;;;;;;;;;;2098441;28;20036;-74
2022/10/22 07:53:31;;;;;;;3.42;3.13;;;;;;;;;;2094290;28;20405;-75
2022/10/22 07:54:49;;;;;;;5.78;3.70;;;;;;;;;;2096658;28;20879;-73
2022/10/22 07:56:08;;;;;;;5.72;3.85;;;;;;;;;;2099937;28;20492;-74
2022/10/22 07:57:27;;;;;;;4.13;3.70;;;;;;;;;;2100772;28;20032;-73
2022/10/22 07:58:46;;;;;;;4.55;4.15;;;;;;;;;;2095338;28;20635;-74
2022/10/22 08:00:06;;;;;;;4.22;3.72;;;;;;;;;;2098146;28;20032;-75
2022/10/22 08:01:25;;;;;;;5.72;3.83;;;;;;;;;;2097590;28;20156;-73